Time;durP1;ratioP1;P1;durP2;ratioP2;P2;SDS_P1;SDS_P2;PMS_P1;PMS_P2;Temp;Humidity;BMP_temperature;BMP_pressure;BME280_temperature;BME280_humidity;BME280_pressure;Samples;Min_cycle;Max_cycle;Signal;HPM_P1;HPM_P2
2024/04/14 00:01:45;;;;;;;6.90;3.57;;;;;;;20.54;46.12;97972.38;5440968;26;20914;-70
2024/04/14 00:04:11;;;;;;;3.73;3.30;;;;;;;20.55;45.49;97977.47;5449685;26;20300;-71
2024/04/14 00:06:36;;;;;;;7.03;3.50;;;;;;;20.53;45.36;97976.84;5431275;26;20342;-72
2024/04/14 00:09:02;;;;;;;5.80;3.50;;;;;;;20.54;45.02;97972.38;5439966;26;20275;-70
2024/04/14 00:11:27;;;;;;;8.40;3.97;;;;;;;20.54;45.34;97972.38;5432279;26;21102;-71
2024/04/14 00:13:53;;;;;;;6.70;3.83;;;;;;;20.49;45.61;97970.25;5449187;26;20235;-70
2024/04/14 00:16:18;;;;;;;5.27;3.40;;;;;;;20.45;44.98;97963.72;5446282;26;20960;-72
2024/04/14 00:18:44;;;;;;;4.03;3.30;;;;;;;20.42;44.93;97959.59;5432427;26;20224;-71
2024/04/14 00:21:10;;;;;;;5.07;4.00;;;;;;;20.36;45.42;97959.56;5434724;26;20833;-70
2024/04/14 00:23:35;;;;;;;5.43;3.93;;;;;;;20.37;45.45;97951.38;5446542;26;20620;-71
2024/04/14 00:26:01;;;;;;;4.77;4.10;;;;;;;20.33;45.31;97952.78;5439898;26;20510;-72
2024/04/14 00:28:26;;;;;;;5.17;3.73;;;;;;;20.26;45.48;97944.78;5441253;26;21190;-73
2024/04/14 00:30:52;;;;;;;7.57;4.07;;;;;;;20.25;45.09;97939.66;5432547;26;20919;-71
2024/04/14 00:33:17;;;;;;;4.30;3.90;;;;;;;20.16;45.61;97943.50;5447912;26;20227;-70
2024/04/14 00:35:43;;;;;;;4.90;3.97;;;;;;;20.12;45.57;97942.25;5446212;26;20224;-70
2024/04/14 00:38:08;;;;;;;8.73;4.50;;;;;;;20.04;45.83;97943.22;5438419;26;20241;-70
2024/04/14 00:40:34;;;;;;;4.20;3.80;;;;;;;20.10;45.39;97934.44;5441507;26;20501;-70
2024/04/14 00:42:59;;;;;;;7.20;4.30;;;;;;;20.11;45.36;97946.72;5447439;26;20235;-71
2024/04/14 00:45:26;;;;;;;6.17;3.70;;;;;;;20.10;45.45;97945.06;5447822;26;20694;-73
2024/04/14 00:47:53;;;;;;;6.40;3.40;;;;;;;20.07;45.40;97945.50;5444525;26;20595;-71
2024/04/14 00:50:18;;;;;;;6.77;4.10;;;;;;;19.93;45.79;97949.88;5438083;26;20449;-72
2024/04/14 00:52:44;;;;;;;4.53;4.13;;;;;;;19.94;45.72;97940.91;5428660;26;20491;-69
2024/04/14 00:55:11;;;;;;;4.40;4.00;;;;;;;19.94;45.52;97951.53;5436209;26;20335;-70
2024/04/14 00:57:37;;;;;;;6.57;4.20;;;;;;;19.89;45.96;97946.81;5443837;26;20575;-70
2024/04/14 01:00:05;;;;;;;4.80;4.00;;;;;;;19.84;45.54;97941.22;5442220;26;20605;-70
2024/04/14 01:02:30;;;;;;;7.10;4.20;;;;;;;19.83;46.26;97938.75;5446898;26;20461;-70
2024/04/14 01:04:56;;;;;;;7.37;4.27;;;;;;;19.77;45.73;97935.03;5446571;26;20542;-70
2024/04/14 01:07:21;;;;;;;5.40;4.23;;;;;;;19.70;45.88;97937.63;5445895;26;20232;-72
2024/04/14 01:09:47;;;;;;;6.70;4.30;;;;;;;19.71;45.70;97936.63;5446042;26;20286;-71
2024/04/14 01:12:13;;;;;;;5.20;4.20;;;;;;;19.74;45.58;97936.25;5446972;26;20791;-70
2024/04/14 01:14:39;;;;;;;5.40;4.10;;;;;;;19.68;45.17;97944.16;5446082;26;20457;-72
2024/04/14 01:17:06;;;;;;;6.27;3.93;;;;;;;19.71;45.45;97936.63;5440672;26;20831;-72
2024/04/14 01:19:32;;;;;;;6.33;3.80;;;;;;;19.73;45.27;97934.59;5446569;26;20512;-70
2024/04/14 01:21:58;;;;;;;6.67;4.40;;;;;;;19.71;45.66;97936.63;5444106;26;20456;-70
2024/04/14 01:24:23;;;;;;;7.63;3.93;;;;;;;19.78;45.81;97929.50;5446275;26;21033;-70
2024/04/14 01:26:49;;;;;;;3.90;3.60;;;;;;;19.72;45.99;97938.25;5445040;26;20299;-70
2024/04/14 01:29:15;;;;;;;7.83;4.20;;;;;;;19.70;45.71;97937.63;5443869;26;20327;-71
2024/04/14 01:31:41;;;;;;;5.10;3.70;;;;;;;19.62;45.18;97935.94;5431227;26;20235;-71
2024/04/14 01:34:07;;;;;;;7.43;4.33;;;;;;;19.62;45.44;97938.59;5424479;26;20538;-71
2024/04/14 01:36:32;;;;;;;3.90;3.47;;;;;;;19.59;45.95;97932.84;5444381;26;20309;-70
2024/04/14 01:38:59;;;;;;;6.87;4.20;;;;;;;19.59;45.59;97935.50;5429057;26;20793;-71
2024/04/14 01:41:25;;;;;;;5.80;3.50;;;;;;;19.60;45.54;97939.81;5442933;26;20227;-70
2024/04/14 01:43:50;;;;;;;4.30;3.67;;;;;;;19.59;45.03;97936.34;5435928;26;20474;-71
2024/04/14 01:46:15;;;;;;;4.70;3.57;;;;;;;19.48;45.19;97937.66;5444661;26;20232;-69
2024/04/14 01:48:41;;;;;;;5.20;3.60;;;;;;;19.55;45.50;97928.91;5445005;26;20299;-69
2024/04/14 01:51:06;;;;;;;4.50;3.77;;;;;;;19.52;45.34;97931.97;5445771;26;20281;-69
2024/04/14 01:53:32;;;;;;;5.30;3.80;;;;;;;19.55;45.47;97926.25;5443987;26;20302;-69
2024/04/14 01:55:59;;;;;;;4.60;3.17;;;;;;;19.47;45.11;97927.22;5445123;26;20231;-71
2024/04/14 01:58:26;;;;;;;3.43;3.10;;;;;;;19.34;45.36;97935.91;5445065;26;20830;-69
2024/04/14 02:00:51;;;;;;;4.00;2.90;;;;;;;19.46;44.65;97930.91;5445511;26;20513;-68
2024/04/14 02:03:17;;;;;;;3.20;2.90;;;;;;;19.33;44.75;97936.91;5445713;26;20913;-70
2024/04/14 02:05:42;;;;;;;4.57;3.10;;;;;;;19.33;45.07;97939.56;5438223;26;20232;-73
2024/04/14 02:08:08;;;;;;;9.73;2.90;;;;;;;19.34;44.53;97935.91;5460065;26;20236;-72
2024/04/14 02:10:39;;;;;;;2.97;2.67;;;;;;;19.30;44.94;97931.97;5441066;26;20298;-70
2024/04/14 02:13:04;;;;;;;5.07;2.97;;;;;;;19.27;45.13;97929.72;5439375;26;20322;-72
2024/04/14 02:15:30;;;;;;;5.33;2.80;;;;;;;19.27;45.62;97935.03;5438370;26;20464;-72
2024/04/14 02:17:55;;;;;;;7.47;3.23;;;;;;;19.24;45.50;97932.75;5430964;26;20707;-74
2024/04/14 02:20:21;;;;;;;3.73;3.40;;;;;;;19.21;45.34;97930.47;5416676;26;20251;-72
2024/04/14 02:22:46;;;;;;;6.77;3.33;;;;;;;19.19;45.33;97930.66;5431596;26;20239;-69
2024/04/14 02:25:11;;;;;;;3.50;3.03;;;;;;;19.21;45.10;97930.47;5440966;26;20262;-70
2024/04/14 02:27:37;;;;;;;3.30;3.00;;;;;;;19.18;45.22;97921.06;5441785;26;21056;-71
2024/04/14 02:30:02;;;;;;;3.87;3.27;;;;;;;19.13;45.60;97923.44;5442918;26;20281;-70
2024/04/14 02:32:28;;;;;;;5.23;3.23;;;;;;;19.12;45.33;97925.28;5445849;26;20227;-73
2024/04/14 02:34:53;;;;;;;4.53;3.10;;;;;;;19.09;45.56;97917.69;5445844;26;20251;-70
2024/04/14 02:37:19;;;;;;;8.93;3.10;;;;;;;19.04;45.05;97914.78;5421231;26;20240;-72
2024/04/14 02:39:45;;;;;;;3.00;2.80;;;;;;;19.01;45.52;97915.97;5443969;26;20239;-70
2024/04/14 02:42:10;;;;;;;4.17;3.03;;;;;;;18.90;45.82;97913.00;5438827;26;20610;-71
2024/04/14 02:44:35;;;;;;;4.57;3.00;;;;;;;19.02;45.47;97919.47;5425663;26;20239;-71
2024/04/14 02:47:01;;;;;;;2.80;2.60;;;;;;;19.00;45.39;97910.88;5443215;26;20315;-71
2024/04/14 02:49:28;;;;;;;4.80;3.10;;;;;;;18.81;45.88;97912.28;5434368;26;20281;-71
2024/04/14 02:51:54;;;;;;;3.10;2.70;;;;;;;18.87;45.68;97919.47;5444055;26;20306;-72
2024/04/14 02:54:19;;;;;;;9.80;2.90;;;;;;;18.73;45.90;97914.03;5446432;26;21000;-71
2024/04/14 02:56:45;;;;;;;7.97;3.50;;;;;;;18.78;46.06;97918.75;5438161;26;20605;-71
2024/04/14 02:59:11;;;;;;;9.07;3.30;;;;;;;18.86;45.78;97913.34;5440192;26;20245;-71
2024/04/14 03:01:36;;;;;;;4.20;2.90;;;;;;;18.79;45.70;97915.09;5446087;26;20396;-70
2024/04/14 03:04:02;;;;;;;3.13;2.83;;;;;;;18.80;46.04;97916.75;5442369;26;20881;-69
2024/04/14 03:06:27;;;;;;;3.20;2.90;;;;;;;18.83;46.10;97911.06;5442956;26;20278;-71
2024/04/14 03:08:53;;;;;;;5.40;2.90;;;;;;;18.81;46.17;97906.97;5443572;26;20243;-71
2024/04/14 03:11:18;;;;;;;5.77;2.90;;;;;;;18.80;45.99;97907.97;5443970;26;20227;-70
2024/04/14 03:13:44;;;;;;;3.63;3.20;;;;;;;18.78;46.15;97910.00;5445733;26;20247;-70
2024/04/14 03:16:09;;;;;;;3.47;2.77;;;;;;;18.76;45.77;97907.53;5441427;26;21102;-68
2024/04/14 03:18:35;;;;;;;3.30;2.67;;;;;;;18.77;45.92;97903.88;5441992;26;20913;-69
2024/04/14 03:21:02;;;;;;;5.40;3.10;;;;;;;18.86;46.10;97904.56;5432903;26;20314;-72
2024/04/14 03:23:28;;;;;;;4.23;2.80;;;;;;;18.79;45.92;97917.75;5433380;26;20729;-70
2024/04/14 03:25:54;;;;;;;3.93;2.90;;;;;;;18.76;46.05;97912.00;5432747;26;20517;-70
2024/04/14 03:28:24;;;;;;;3.83;2.77;;;;;;;18.78;46.03;97913.47;5447368;26;20521;-70
2024/04/14 03:30:50;;;;;;;5.90;2.77;;;;;;;18.65;46.33;97910.69;5446031;26;20529;-69
2024/04/14 03:33:15;;;;;;;8.53;3.20;;;;;;;18.63;46.58;97902.06;5439744;26;20455;-70
2024/04/14 03:35:41;;;;;;;12.80;3.30;;;;;;;18.67;46.52;97912.13;5441779;26;20278;-71
2024/04/14 03:38:06;;;;;;;9.10;3.07;;;;;;;18.66;46.51;97909.66;5447060;26;20870;-70
2024/04/14 03:40:32;;;;;;;2.60;2.37;;;;;;;18.69;45.88;97914.59;5438835;26;20317;-69
2024/04/14 03:42:57;;;;;;;4.83;2.80;;;;;;;18.61;46.49;97912.06;5428190;26;20344;-72
2024/04/14 03:45:24;;;;;;;2.67;2.47;;;;;;;18.53;46.43;97915.63;5448344;26;20247;-71
2024/04/14 03:47:52;;;;;;;2.70;2.50;;;;;;;18.61;46.25;97912.06;5445679;26;20278;-69
2024/04/14 03:50:18;;;;;;;5.50;3.40;;;;;;;18.65;45.95;97910.69;5446544;26;20472;-69
2024/04/14 03:52:44;;;;;;;6.83;3.30;;;;;;;18.64;45.69;97906.38;5446221;26;20449;-70
2024/04/14 03:55:09;;;;;;;7.90;3.10;;;;;;;18.64;45.56;97904.53;5434554;26;20453;-72
2024/04/14 03:57:34;;;;;;;2.57;2.33;;;;;;;18.65;45.21;97902.72;5446410;26;20231;-70
2024/04/14 04:00:00;;;;;;;3.70;2.20;;;;;;;18.64;45.63;97909.03;5445913;26;20235;-70
2024/04/14 04:02:25;;;;;;;3.70;2.77;;;;;;;18.68;45.47;97904.97;5447256;26;20236;-72
2024/04/14 04:04:51;;;;;;;6.83;2.90;;;;;;;18.69;44.97;97906.63;5444468;26;20770;-70
2024/04/14 04:07:16;;;;;;;5.33;2.40;;;;;;;18.65;45.67;97905.38;5422979;26;20281;-70
2024/04/14 04:09:42;;;;;;;6.53;2.77;;;;;;;18.58;45.81;97908.75;5446661;26;20346;-71
2024/04/14 04:12:07;;;;;;;3.97;2.40;;;;;;;18.61;46.09;97906.75;5430261;26;20278;-70
2024/04/14 04:14:33;;;;;;;3.83;2.20;;;;;;;18.61;46.22;97904.09;5436166;26;20240;-69
2024/04/14 04:16:58;;;;;;;3.63;2.60;;;;;;;18.46;46.05;97902.28;5440948;26;20266;-71
2024/04/14 04:19:23;;;;;;;5.00;3.03;;;;;;;18.44;46.06;97901.66;5446536;26;20281;-71
2024/04/14 04:21:49;;;;;;;3.53;2.87;;;;;;;18.43;46.15;97910.63;5433648;26;20227;-72
2024/04/14 04:24:14;;;;;;;3.00;2.70;;;;;;;18.50;46.18;97913.34;5446461;26;20231;-70
2024/04/14 04:26:40;;;;;;;4.17;2.73;;;;;;;18.53;46.04;97915.63;5442202;26;20286;-71
2024/04/14 04:29:05;;;;;;;5.43;2.47;;;;;;;18.47;45.92;97914.56;5438778;26;20287;-71
2024/04/14 04:31:31;;;;;;;5.60;2.67;;;;;;;18.58;45.83;97916.72;5435109;26;20664;-71
2024/04/14 04:33:56;;;;;;;4.77;3.23;;;;;;;18.56;45.40;97915.28;5446459;26;20821;-70
2024/04/14 04:36:22;;;;;;;3.83;2.97;;;;;;;18.53;45.29;97915.63;5442953;26;20335;-71
2024/04/14 04:38:47;;;;;;;5.10;3.00;;;;;;;18.56;45.46;97915.28;5439133;26;20247;-71
2024/04/14 04:41:13;;;;;;;3.07;2.87;;;;;;;18.54;45.79;97912.78;5439372;26;20231;-70
2024/04/14 04:43:39;;;;;;;2.70;2.37;;;;;;;18.60;45.02;97911.22;5453263;26;20276;-73
2024/04/14 04:46:04;;;;;;;3.00;2.53;;;;;;;18.57;45.33;97915.06;5445269;26;20347;-73
2024/04/14 04:48:30;;;;;;;3.07;2.53;;;;;;;18.46;45.40;97918.22;5445836;26;20993;-70
2024/04/14 04:50:55;;;;;;;4.07;3.27;;;;;;;18.47;45.91;97917.19;5450995;26;20236;-70
2024/04/14 04:53:21;;;;;;;3.07;2.70;;;;;;;18.42;46.15;97916.94;5446510;26;20247;-71
2024/04/14 04:55:47;;;;;;;2.73;2.53;;;;;;;18.47;45.64;97919.84;5445697;26;20440;-71
2024/04/14 04:58:16;;;;;;;7.43;2.37;;;;;;;18.48;45.25;97921.50;5439403;26;20449;-72
2024/04/14 05:00:50;;;;;;;3.27;2.90;;;;;;;18.52;45.77;97920.13;5436352;26;20236;-70
2024/04/14 05:03:16;;;;;;;5.20;2.70;;;;;;;18.53;45.57;97919.09;5444465;26;20928;-71
2024/04/14 05:05:42;;;;;;;3.43;2.90;;;;;;;18.47;46.16;97919.84;5435469;26;20508;-70
2024/04/14 05:08:07;;;;;;;3.13;2.93;;;;;;;18.44;45.99;97927.38;5441169;26;20457;-71
2024/04/14 05:10:33;;;;;;;3.90;3.57;;;;;;;18.45;46.25;97926.38;5445485;26;20231;-70
2024/04/14 05:12:58;;;;;;;4.67;3.07;;;;;;;18.49;46.63;97919.66;5445263;26;20845;-69
2024/04/14 05:15:24;;;;;;;7.30;2.87;;;;;;;18.51;46.33;97920.31;5444776;26;20289;-69
2024/04/14 05:17:49;;;;;;;7.30;2.60;;;;;;;18.51;45.95;97925.59;5444402;26;20270;-68
2024/04/14 05:20:15;;;;;;;5.90;2.60;;;;;;;18.60;45.54;97916.53;5439929;26;20303;-70
2024/04/14 05:22:40;;;;;;;9.93;2.97;;;;;;;18.72;44.57;97916.88;5436564;26;20243;-69
2024/04/14 05:25:06;;;;;;;3.33;2.90;;;;;;;18.76;45.67;97923.47;5443481;26;20285;-70
2024/04/14 05:27:31;;;;;;;3.30;2.90;;;;;;;18.79;45.89;97923.06;5444792;26;20303;-70
2024/04/14 05:29:57;;;;;;;7.40;3.10;;;;;;;18.80;46.60;97929.22;5445425;26;20231;-68
2024/04/14 05:32:22;;;;;;;4.37;2.80;;;;;;;18.84;46.21;97933.13;5443751;26;20243;-71
2024/04/14 05:34:49;;;;;;;3.07;2.87;;;;;;;18.75;47.00;97935.09;5445671;26;20278;-70
2024/04/14 05:37:15;;;;;;;6.20;3.07;;;;;;;18.73;47.81;97939.75;5442025;26;20372;-71
2024/04/14 05:39:40;;;;;;;4.03;3.07;;;;;;;18.79;47.87;97935.53;5442918;26;20457;-70
2024/04/14 05:42:06;;;;;;;4.73;3.63;;;;;;;18.82;47.48;97938.63;5443611;26;20231;-71
2024/04/14 05:44:33;;;;;;;3.80;3.50;;;;;;;18.97;47.83;97945.78;5445070;26;20243;-69
2024/04/14 05:46:58;;;;;;;8.37;6.63;;;;;;;19.15;49.18;97959.44;5430669;26;20272;-69
2024/04/14 05:49:24;;;;;;;9.43;5.50;;;;;;;19.41;48.78;97951.91;5429367;26;20524;-71
2024/04/14 05:51:50;;;;;;;10.40;5.90;;;;;;;19.62;48.07;97953.72;5437315;26;20724;-70
2024/04/14 05:54:15;;;;;;;7.33;4.77;;;;;;;19.84;48.84;97945.72;5441194;26;20568;-69
2024/04/14 05:56:41;;;;;;;3.97;3.10;;;;;;;19.99;47.80;97949.13;5428572;26;20240;-70
2024/04/14 05:59:06;;;;;;;4.70;3.97;;;;;;;20.14;47.59;97948.19;5439466;26;20675;-70
2024/04/14 06:01:32;;;;;;;5.40;3.57;;;;;;;20.34;47.31;97943.78;5445420;26;20240;-68
2024/04/14 06:03:57;;;;;;;3.80;3.50;;;;;;;20.46;46.30;97948.56;5441481;26;20656;-68
2024/04/14 06:06:23;;;;;;;4.03;3.47;;;;;;;20.63;46.30;97944.53;5434515;26;20297;-69
2024/04/14 06:08:48;;;;;;;4.57;3.60;;;;;;;20.76;45.73;97945.63;5439970;26;20251;-69
2024/04/14 06:11:14;;;;;;;4.30;2.93;;;;;;;20.92;45.34;97952.44;5443185;26;20239;-68
2024/04/14 06:13:39;;;;;;;3.00;2.77;;;;;;;21.05;45.13;97951.63;5440900;26;20236;-70
2024/04/14 06:16:05;;;;;;;4.17;3.10;;;;;;;21.22;45.05;97960.09;5444057;26;20232;-71
2024/04/14 06:18:30;;;;;;;3.10;2.90;;;;;;;21.37;44.88;97957.25;5439750;26;20278;-67
2024/04/14 06:20:56;;;;;;;3.50;2.80;;;;;;;21.53;44.73;97956.84;5445445;26;20286;-69
2024/04/14 06:23:21;;;;;;;3.87;2.70;;;;;;;21.65;44.50;97958.94;5435032;26;20231;-70
2024/04/14 06:25:47;;;;;;;3.27;3.07;;;;;;;21.79;44.22;97960.56;5439122;26;20338;-69
2024/04/14 06:28:12;;;;;;;4.07;2.83;;;;;;;21.88;43.89;97962.00;5441091;26;20303;-69
2024/04/14 06:30:38;;;;;;;3.07;2.77;;;;;;;21.97;43.74;97967.09;5440311;26;21066;-70
2024/04/14 06:33:04;;;;;;;4.03;3.43;;;;;;;21.98;44.40;97961.59;5475439;26;20311;-69
2024/04/14 06:35:30;;;;;;;2.73;2.50;;;;;;;22.03;44.30;97966.28;5423660;26;20274;-69
2024/04/14 06:37:56;;;;;;;6.67;3.20;;;;;;;22.14;44.30;97964.81;5434366;26;20235;-69
2024/04/14 06:40:21;;;;;;;3.53;2.87;;;;;;;22.25;43.68;97961.50;5442872;26;21251;-69
2024/04/14 06:42:47;;;;;;;3.50;2.60;;;;;;;22.38;43.90;97966.00;5424848;26;20506;-68
2024/04/14 06:45:12;;;;;;;4.20;2.90;;;;;;;22.53;43.96;97953.25;5436137;26;20236;-69
2024/04/14 06:47:38;;;;;;;4.70;3.07;;;;;;;22.66;43.71;97959.56;5427348;26;20294;-68
2024/04/14 06:50:03;;;;;;;6.70;2.70;;;;;;;22.81;43.08;97959.28;5409551;26;20274;-69
2024/04/14 06:52:29;;;;;;;3.90;3.30;;;;;;;22.97;42.69;97952.63;5425609;26;20786;-69
2024/04/14 06:54:54;;;;;;;4.60;2.33;;;;;;;23.14;42.09;97956.44;5448956;26;20235;-68
2024/04/14 06:57:20;;;;;;;5.73;2.70;;;;;;;23.30;41.09;97951.66;5427231;26;20241;-69
2024/04/14 06:59:45;;;;;;;3.50;2.30;;;;;;;23.43;41.14;97953.41;5444552;26;20310;-70
2024/04/14 07:02:11;;;;;;;2.57;2.30;;;;;;;23.55;40.37;97951.66;5446390;26;20675;-69
2024/04/14 07:04:36;;;;;;;2.70;2.30;;;;;;;23.64;37.61;97952.22;5433743;26;20647;-71
2024/04/14 07:07:02;;;;;;;2.47;2.27;;;;;;;23.67;36.99;97950.94;5445502;26;20286;-69
2024/04/14 07:09:27;;;;;;;3.80;2.10;;;;;;;23.72;37.67;97949.25;5445723;26;20302;-70
2024/04/14 07:11:53;;;;;;;7.27;2.23;;;;;;;23.72;36.80;97948.44;5437724;26;20346;-69
2024/04/14 07:14:19;;;;;;;6.90;2.20;;;;;;;23.75;36.19;97956.84;5431452;26;20283;-68
2024/04/14 07:16:45;;;;;;;3.70;2.10;;;;;;;23.78;36.30;97953.72;5410959;26;20592;-70
2024/04/14 07:19:11;;;;;;;3.67;2.30;;;;;;;23.85;36.76;97952.84;5427867;26;20531;-69
2024/04/14 07:21:37;;;;;;;3.03;2.00;;;;;;;23.86;36.11;97960.66;5446804;26;20227;-69
2024/04/14 07:24:03;;;;;;;2.27;1.90;;;;;;;23.86;36.07;97949.13;5439056;26;20461;-70
2024/04/14 07:26:28;;;;;;;3.90;2.10;;;;;;;23.90;36.14;97959.16;5442108;26;20255;-69
2024/04/14 07:28:54;;;;;;;3.50;2.00;;;;;;;23.97;36.03;97955.66;5443531;26;20574;-69
2024/04/14 07:31:19;;;;;;;2.30;2.10;;;;;;;24.08;36.34;97958.41;5433432;26;20312;-69
2024/04/14 07:33:45;;;;;;;2.30;2.10;;;;;;;24.20;36.55;97960.34;5441255;26;20278;-70
2024/04/14 07:36:10;;;;;;;1.73;1.63;;;;;;;24.31;36.48;97962.31;5427531;26;20270;-69
2024/04/14 07:38:35;;;;;;;2.50;1.73;;;;;;;24.18;36.17;97954.41;5444745;26;20254;-70
2024/04/14 07:41:01;;;;;;;2.20;1.97;;;;;;;24.32;35.86;97961.25;5438379;26;20243;-67
2024/04/14 07:43:27;;;;;;;4.30;2.10;;;;;;;24.47;36.57;97955.53;5461443;26;20242;-70
2024/04/14 07:45:52;;;;;;;4.57;2.00;;;;;;;24.53;35.12;97948.47;5434906;26;20672;-69
2024/04/14 07:48:17;;;;;;;5.33;1.93;;;;;;;24.64;34.65;97953.06;5428026;26;20287;-68
2024/04/14 07:50:44;;;;;;;1.70;1.50;;;;;;;24.81;34.72;97944.44;5436344;26;20243;-70
2024/04/14 07:53:09;;;;;;;2.00;1.80;;;;;;;24.96;34.98;97952.06;5449295;26;20584;-69
2024/04/14 07:55:35;;;;;;;1.80;1.60;;;;;;;25.00;34.76;97948.69;5416526;26;20517;-68
2024/04/14 07:58:00;;;;;;;5.53;2.10;;;;;;;25.13;34.18;97941.50;5448559;26;20285;-68
2024/04/14 08:00:26;;;;;;;2.80;2.10;;;;;;;25.27;34.26;97947.47;5447799;26;21010;-69
2024/04/14 08:02:51;;;;;;;3.20;1.77;;;;;;;25.45;34.20;97946.66;5446364;26;20269;-68
2024/04/14 08:05:17;;;;;;;2.93;2.13;;;;;;;25.58;33.81;97941.03;5446108;26;20295;-67
2024/04/14 08:07:43;;;;;;;2.37;1.70;;;;;;;25.58;33.44;97941.03;5445544;26;20243;-69
2024/04/14 08:10:08;;;;;;;2.60;1.90;;;;;;;25.74;33.62;97941.41;5446098;26;20451;-69
2024/04/14 08:12:34;;;;;;;1.80;1.63;;;;;;;25.77;33.63;97936.38;5447911;26;20290;-68
2024/04/14 08:14:59;;;;;;;2.27;2.07;;;;;;;25.92;33.54;97943.97;5448121;26;20336;-70
2024/04/14 08:17:25;;;;;;;5.53;2.03;;;;;;;26.04;33.56;97945.84;5438022;26;20256;-70
2024/04/14 08:19:51;;;;;;;3.63;1.73;;;;;;;26.15;33.52;97937.00;5447619;26;20331;-70
2024/04/14 08:22:16;;;;;;;4.03;1.87;;;;;;;26.31;33.49;97940.81;5440483;26;20317;-68
2024/04/14 08:24:42;;;;;;;2.50;1.53;;;;;;;26.44;32.94;97937.06;5448834;26;20457;-68
2024/04/14 08:27:07;;;;;;;2.77;1.60;;;;;;;26.59;32.79;97935.75;5449083;26;20243;-70
2024/04/14 08:29:33;;;;;;;3.40;1.90;;;;;;;26.72;33.30;97930.06;5444416;26;20884;-69
2024/04/14 08:32:00;;;;;;;3.53;1.83;;;;;;;26.86;32.82;97929.78;5441719;26;20232;-68
2024/04/14 08:34:26;;;;;;;2.80;1.90;;;;;;;26.98;33.03;97944.00;5445709;26;20235;-68
2024/04/14 08:36:51;;;;;;;2.50;2.03;;;;;;;27.13;33.15;97941.59;5448169;26;20558;-69
2024/04/14 08:39:17;;;;;;;1.73;1.50;;;;;;;27.32;33.26;97941.38;5433461;26;20582;-67
2024/04/14 08:41:43;;;;;;;3.90;1.90;;;;;;;27.46;33.16;97943.78;5434677;26;20307;-67
2024/04/14 08:44:12;;;;;;;3.93;2.00;;;;;;;27.52;32.95;97938.25;5435334;26;20284;-67
2024/04/14 08:46:39;;;;;;;2.27;2.07;;;;;;;27.72;33.32;97948.50;5432894;26;20455;-70
2024/04/14 08:49:06;;;;;;;2.30;1.60;;;;;;;27.92;33.24;97947.19;5444618;26;20460;-69
2024/04/14 08:51:31;;;;;;;3.63;1.97;;;;;;;28.15;32.62;97939.97;5445482;26;21016;-67
2024/04/14 08:53:58;;;;;;;2.10;1.90;;;;;;;28.36;32.67;97936.47;5445977;26;20512;-67
2024/04/14 08:56:24;;;;;;;5.70;1.90;;;;;;;28.50;31.34;97933.41;5445809;26;20247;-69
2024/04/14 08:58:56;;;;;;;2.87;1.80;;;;;;;28.60;31.89;97930.84;5461149;26;21364;-69
2024/04/14 09:01:22;;;;;;;3.20;1.93;;;;;;;28.71;31.72;97937.16;5447150;26;20239;-68
2024/04/14 09:03:48;;;;;;;2.57;1.80;;;;;;;28.77;31.32;97932.66;5446658;26;21297;-68
2024/04/14 09:06:14;;;;;;;2.33;1.77;;;;;;;28.96;31.07;97931.25;5446929;26;20468;-70
2024/04/14 09:08:39;;;;;;;3.63;2.10;;;;;;;29.08;30.59;97927.59;5440669;26;20236;-70
2024/04/14 09:11:07;;;;;;;2.87;1.80;;;;;;;29.27;30.38;97928.84;5446608;26;20623;-69
2024/04/14 09:13:33;;;;;;;2.50;2.23;;;;;;;29.48;30.11;97931.75;5433990;26;20577;-69
2024/04/14 09:15:58;;;;;;;2.77;2.00;;;;;;;29.48;30.39;97925.53;5438766;26;20453;-70
2024/04/14 09:18:24;;;;;;;2.67;1.90;;;;;;;29.51;29.75;97925.00;5439694;26;20312;-69
2024/04/14 09:20:49;;;;;;;2.00;1.80;;;;;;;29.57;30.05;97922.09;5476397;26;20312;-70
2024/04/14 09:23:15;;;;;;;2.57;1.87;;;;;;;29.70;30.50;97923.53;5447000;26;20347;-70
2024/04/14 09:25:40;;;;;;;3.53;2.00;;;;;;;29.75;30.27;97924.63;5433767;26;20329;-70
2024/04/14 09:28:10;;;;;;;5.33;2.03;;;;;;;29.81;30.12;97926.28;5441372;26;20278;-68
2024/04/14 09:30:35;;;;;;;2.90;2.03;;;;;;;29.85;29.88;97922.00;5443443;26;20279;-68
2024/04/14 09:33:01;;;;;;;1.80;1.70;;;;;;;29.92;29.34;97924.47;5441801;26;20449;-68
2024/04/14 09:35:26;;;;;;;5.53;1.93;;;;;;;30.04;29.13;97925.09;5446532;26;20317;-69
2024/04/14 09:37:52;;;;;;;3.87;1.70;;;;;;;30.13;29.33;97918.13;5433991;26;20334;-69
2024/04/14 09:40:18;;;;;;;3.50;1.80;;;;;;;30.26;29.70;97922.25;5447487;26;20270;-68
2024/04/14 09:42:44;;;;;;;4.60;2.17;;;;;;;30.44;29.15;97917.44;5445812;26;20298;-69
2024/04/14 09:45:10;;;;;;;3.83;1.90;;;;;;;30.38;28.71;97913.91;5438862;26;21103;-70
2024/04/14 09:47:36;;;;;;;3.50;2.00;;;;;;;30.35;28.99;97917.16;5445740;26;20452;-70
2024/04/14 09:50:03;;;;;;;3.50;2.10;;;;;;;30.48;28.80;97916.66;5442612;26;20299;-69
2024/04/14 09:52:30;;;;;;;2.63;1.80;;;;;;;30.44;28.79;97912.84;5443139;26;20468;-69
2024/04/14 09:54:56;;;;;;;2.00;1.80;;;;;;;30.72;29.21;97902.69;5439524;26;20518;-69
2024/04/14 09:57:22;;;;;;;4.27;1.90;;;;;;;30.63;28.80;97915.94;5434665;26;20453;-69
2024/04/14 09:59:47;;;;;;;3.60;2.00;;;;;;;30.68;28.74;97911.63;5433923;26;20453;-69
2024/04/14 10:02:17;;;;;;;4.83;2.27;;;;;;;30.89;28.52;97904.34;5404443;26;20243;-70
2024/04/14 10:04:45;;;;;;;2.47;2.27;;;;;;;30.99;28.57;97909.78;5413255;26;20232;-70
2024/04/14 10:07:12;;;;;;;5.73;2.13;;;;;;;31.18;28.72;97907.41;5441134;26;20457;-70
2024/04/14 10:09:37;;;;;;;2.57;2.00;;;;;;;31.28;28.07;97905.75;5415809;26;20606;-70
2024/04/14 10:12:03;;;;;;;2.67;2.10;;;;;;;31.34;28.68;97908.19;5446380;26;20468;-69
2024/04/14 10:14:39;;;;;;;2.60;1.90;;;;;;;30.90;28.41;97897.84;5413510;26;20235;-69
2024/04/14 10:17:05;;;;;;;3.63;2.37;;;;;;;30.97;28.66;97893.00;5449465;26;20645;-69
2024/04/14 10:19:34;;;;;;;4.87;2.20;;;;;;;31.11;28.85;97895.97;5446677;26;20536;-69
2024/04/14 10:22:21;;;;;;;5.10;2.33;;;;;;;31.01;29.06;97891.38;5436824;26;21073;-69
2024/04/14 10:24:52;;;;;;;6.63;2.30;;;;;;;30.95;29.24;97887.03;5448873;26;20473;-69
2024/04/14 10:27:18;;;;;;;3.30;2.00;;;;;;;30.84;29.16;97875.38;5435355;26;20510;-68
2024/04/14 10:29:54;;;;;;;3.43;2.30;;;;;;;30.76;29.63;97878.63;5449153;26;20520;-68
2024/04/14 10:32:20;;;;;;;4.67;2.33;;;;;;;30.59;29.41;97884.28;5447598;26;20315;-69
2024/04/14 10:34:45;;;;;;;2.90;2.10;;;;;;;30.62;29.88;97871.03;5444202;26;21066;-68
2024/04/14 10:37:23;;;;;;;3.00;2.20;;;;;;;30.74;30.27;97878.06;5418697;26;20234;-69
2024/04/14 10:39:51;;;;;;;2.43;2.07;;;;;;;30.73;30.34;97871.88;5431015;26;22988;-70
2024/04/14 10:42:17;;;;;;;3.10;1.80;;;;;;;30.84;29.53;97878.09;5449275;26;20453;-69
2024/04/14 10:44:43;;;;;;;2.73;2.33;;;;;;;30.75;29.64;97866.97;5440262;26;20517;-70
2024/04/14 10:47:10;;;;;;;2.83;2.10;;;;;;;30.65;29.84;97869.66;5437922;26;20329;-69
2024/04/14 10:49:36;;;;;;;5.67;2.20;;;;;;;30.70;30.53;97867.00;5455541;26;20516;-71
2024/04/14 10:52:02;;;;;;;4.53;2.00;;;;;;;30.71;30.35;97868.63;5437037;26;20470;-68
2024/04/14 10:54:29;;;;;;;4.47;2.30;;;;;;;30.89;30.69;97864.59;5443565;26;20574;-70
2024/04/14 10:56:54;;;;;;;2.30;2.10;;;;;;;31.00;30.54;97854.56;5449231;26;20247;-69
2024/04/14 10:59:21;;;;;;;2.87;2.40;;;;;;;31.13;30.25;97857.88;5441135;26;20516;-69
2024/04/14 11:01:48;;;;;;;9.10;2.13;;;;;;;31.15;29.74;97847.56;5432713;26;20283;-67
2024/04/14 11:04:16;;;;;;;3.17;2.20;;;;;;;31.29;30.17;97840.50;5421338;26;20502;-69
2024/04/14 11:06:42;;;;;;;2.10;1.83;;;;;;;31.39;29.23;97840.50;5435506;26;20506;-68
2024/04/14 11:09:09;;;;;;;2.40;1.90;;;;;;;31.46;29.57;97844.84;5443678;26;20906;-70
2024/04/14 11:11:34;;;;;;;2.50;2.30;;;;;;;31.60;29.21;97840.47;5478652;26;21067;-70
2024/04/14 11:14:01;;;;;;;5.17;2.80;;;;;;;31.60;29.36;97847.78;5444816;26;20472;-71
2024/04/14 11:16:26;;;;;;;6.90;3.10;;;;;;;31.74;29.43;97840.72;5450913;26;20294;-70
2024/04/14 11:18:52;;;;;;;2.43;2.23;;;;;;;31.84;29.48;97845.31;5433509;26;20854;-70
2024/04/14 11:21:18;;;;;;;4.70;2.30;;;;;;;31.89;29.30;97839.84;5443753;26;20287;-69
2024/04/14 11:23:47;;;;;;;2.87;2.10;;;;;;;31.84;28.66;97829.84;5447625;26;20286;-72
2024/04/14 11:26:12;;;;;;;3.90;2.40;;;;;;;31.80;29.32;97834.22;5452293;26;21037;-70
2024/04/14 11:28:39;;;;;;;2.47;2.00;;;;;;;31.90;29.71;97827.94;5439712;26;20464;-70